Go Pro

Vanguard Value ETF (VTV) Institutional Ownership

Vanguard Value ETF logo
$226.46 -0.56 (-0.25%)
As of 09/4/2026 04:10 PM Eastern

Institutional Ownership Changes (13F Filings) for Vanguard Value ETF (NYSEARCA:VTV)

Number of
Institutional Buyers
(last 12 months)
1856
Total
Institutional Inflows
(last 12 months)
$17.24B
Number of
Institutional Sellers
(last 12 months)
1126
Total
Institutional Outflows
(last 12 months)
$4.79B
Get VTV Insider Trade Alerts

Want to know when executives and insiders are buying or selling Vanguard Value ETF stock? Sign up for InsiderTrades.com's daily newsletter to get the latest insider transactions delivered to your inbox daily.

SMS is currently available in Australia, Belgium, Canada, France, Germany, Ireland, Italy, New Zealand, the Netherlands, Singapore, South Africa, Spain, Switzerland, the United Kingdom, and the United States. By entering your phone number and clicking the sign-up button, you agree to receive periodic text messages from MarketBeat at the phone number you submitted, including texts that may be sent using an automatic telephone dialing system. Message and data rates may apply. Message frequency will vary. Messages will consist of stock alerts, news stories, and partner advertisements/offers. Consent is not a condition of the purchase of any goods or services. Text HELP for help/customer support. Unsubscribe at any time by replying "STOP" to any text message that you receive from MarketBeat or by visiting our mailing preferences page. Read our full terms of service and privacy policy.
Skip Chart & View Institutional Buying and Selling Data

VTV Institutional Buying and Selling by Quarter

Vanguard Value ETF Major Shareholders & Ownership History

Reporting DateMajor Shareholder NameShares HeldMarket Value% of PortfolioQuarterly Change in SharesOwnership in CompanyDetails
9/4/2026 Parkside Financial Bank & Trust15,789$3.46M0.2%+2.6%0.002%
9/3/2026 Anchor Capital Advisors LLC1,089$237K0.0%N/A0.000%
9/2/2026 Kinetic Wealth Investment Advisors LLC976$213K0.1%N/A0.000%
9/2/2026 Range Advisory LLC15,146$3.30M0.4%+71.5%0.002%
9/2/2026 Capital & Planning LLC966$211K0.1%N/A0.000%
9/2/2026 Brown Lisle Cummings Inc.5,726$1.25M0.3%+9.1%0.001%
8/27/2026 Corient Private Wealth LP875,705$197.79M0.3%-10.0%0.103%
8/27/2026 Tucker Asset Management LLC2,353$515K0.1%-8.0%0.000%
8/26/2026 HORAN Wealth LLC4,468$974K0.1%-50.8%0.001%
8/26/2026 Schulz Wealth LTD.1,398$305K0.2%N/A0.000%
8/25/2026 Tobias Financial Advisors Inc.19,650$4.28M0.5%-4.2%0.002%
8/24/2026 Serenity Investment Advisors13,016$2.93M1.2%+0.4%0.002%
8/24/2026 Strategic Financial Services Inc.4,147$904K0.0%+162.3%0.000%
8/23/2026 Tanager Wealth Management LLP1,622$353K0.0%-14.6%0.000%
8/23/2026 Studio Investment Management LLC154,262$33.62M5.7%-1.5%0.018%
8/23/2026 Washington Trust Advisors Inc.34,613$7.54M0.6%+2.2%0.004%
8/23/2026 Ameritas Advisory Services LLC219,229$47.78M1.0%+176.5%0.026%
8/23/2026 Guardian Wealth Advisors LLC NC4,887$1.07M0.1%-5.9%0.001%
8/23/2026 Wedmont Private Capital3,512$265K0.0%+1.3%0.000%
8/23/2026 Wedmont Private Capital60,866$13.34M0.4%-0.4%0.007%
8/23/2026 Kintra Wealth LLC48,764$11.07M0.6%-14.4%0.006%
8/23/2026 PCG Wealth Advisors LLC2,737$596K0.1%+5.7%0.000%
8/23/2026 Members Advisory Group LLC78,490$17.11M4.8%-2.0%0.009%
8/23/2026 Yarger Wealth Strategies LLC33,175$7.27M2.6%+3.4%0.004%
8/23/2026 Beaird Harris Wealth Management LLC12,019$2.62M0.2%-0.8%0.001%
8/23/2026 Insight Inv LLC3,309$721K0.3%-10.3%0.000%
8/23/2026 HB Wealth Management LLC140,986$30.73M0.2%+100.3%0.017%
8/23/2026 Hutchens & Kramer Investment Management Group LLC4,856$1.06M0.3%+4.3%0.001%
8/23/2026 Asset Allocation Strategies LLC3,268$712K0.1%+12.2%0.000%
8/23/2026 Fortitude Advisory Group L.L.C.14,244$3.10M1.2%+14.3%0.002%
8/23/2026 Angeles Wealth Management LLC248,948$54.25M2.1%+0.2%0.029%
8/23/2026 Highland Financial Advisors LLC2,752$600K0.1%+5.0%0.000%
8/23/2026 Kaydan Wealth Management Inc.170,649$37.19M11.3%+2.8%0.020%
8/22/2026 Advisory Solutions Group LLC24,433$5.33M1.8%N/A0.003%
8/22/2026 XP Advisory US Inc.2,520$549K0.3%N/A0.000%
8/22/2026 Rose Capital Advisors LLC1,834$400K0.2%N/A0.000%
8/22/2026 Compass Financial Management LLC8,335$1.86M0.2%N/A0.001%
8/22/2026 NI Acquisitions Company LLC209,922$45.75M17.0%N/A0.025%
8/22/2026 NBH Bank34,090$7.46M3.2%N/A0.004%
8/22/2026 Gainline Financial Partners LLC10,345$2.25M2.1%N/A0.001%
This looks like plywood. It's not. (Ad)

AI data centers have a power problem nobody likes to talk about. A single rack of computers can now use more electricity than an entire office building. One new chip, which looks more like a piece of plywood than a processor, delivers similar performance on a fraction of the power. Tech investing veteran George Gilder says that efficiency gap could decide who wins the next stage of AI. Gilder has identified three companies positioned around this power breakthrough, calling them the Trillion Dollar Triangle.tc pixel

See the three companies behind this AI power breakthrough now
8/22/2026 Arbor Wealth Management LLC AZ8,745$1.91M1.7%N/A0.001%
8/22/2026 Succession Financial Inc.1,378$300K0.3%N/A0.000%
8/22/2026 MW Advisory LLC14,440$3.15M1.3%N/A0.002%
8/22/2026 Maloon Powers Pitre Higgins & Dennehy LLC17,899$3.90M1.3%N/A0.002%
8/22/2026 Markowski Investments23,643$5.16M1.1%N/A0.003%
8/22/2026 Old Mission Investment Co LLC189,173$41.23M8.6%N/A0.022%
8/22/2026 Highland Investment Advisors LLC98,597$21.49M9.3%N/A0.012%
8/22/2026 Timbuktu Capital Management LLC2,155$470K0.7%N/A0.000%
8/22/2026 Strive Financial Group LLC13,147$2.87M1.2%+7.2%0.002%
8/22/2026 Invested Advisors2,549$556K0.5%N/A0.000%
8/22/2026 Hopwood Nicholas Hunter79,163$17.25M4.8%N/A0.009%
8/22/2026 MOR Wealth Management LLC14,287$3.11M1.2%+2.5%0.002%
8/22/2026 BAM Wealth Management LLC1,673$365K0.2%+7.0%0.000%
8/22/2026 Cooke Wealth Management LLC10,600$2.31M1.9%-0.7%0.001%
8/22/2026 Cornerstone Advisors Asset Management LLC3,233$704K0.1%-1.6%0.000%
8/22/2026 Jim Saulnier & Associates LLC5,672$435K0.2%N/A0.001%
8/22/2026 Jim Saulnier & Associates LLC18,893$4.12M1.9%+240.3%0.002%
8/22/2026 Shum Financial Group Inc.2,135$465K0.3%N/A0.000%
8/22/2026 K2 Financial Inc.14,419$3.16M2.2%+0.6%0.002%
8/22/2026 Nabity Jensen Investment Management Inc109,239$23.81M14.6%-1.3%0.013%
8/22/2026 Investor s Fiduciary Advisor Network LLC34,405$7.50M2.6%+35.6%0.004%
8/22/2026 LifePlan Investment Advisors Inc.36,033$7.85M2.7%+3.6%0.004%
8/22/2026 NWF Advisory Services Inc.18,216$3.97M0.4%-2.0%0.002%
8/22/2026 Syon Capital LLC22,831$4.98M0.2%+32.3%0.003%
8/22/2026 TD Waterhouse Canada Inc.5,237$1.14M0.0%+74.7%0.001%
8/22/2026 United Community Bank785$171K0.1%+91.5%0.000%
8/22/2026 Concurrent Investment Advisors LLC483,371$105.34M0.9%+40.7%0.057%
8/22/2026 Prosperitas Financial LLC65,251$14.22M4.6%+1.2%0.008%
8/21/2026 High Net Worth Advisory Group LLC15,226$3.32M0.7%+0.4%0.002%
8/21/2026 Kraft Davis & Associates LLC18,915$4.12M0.9%+11.4%0.002%
8/21/2026 Leo H. Evart Inc.31,350$6.83M5.4%+4.6%0.004%
8/21/2026 Beacon Capital Management LLC1,159$253K0.0%-60.4%0.000%
8/21/2026 Waycross Investment Management Co1,648$359K0.2%N/A0.000%
8/21/2026 Paragon Private Wealth Management LLC11,777$2.57M0.7%-2.9%0.001%
8/21/2026 Mayport LLC72,444$15.79M2.5%+2.2%0.008%
8/21/2026 Rodgers & Associates LTD398,813$86.91M6.5%-2.3%0.047%
8/21/2026 Continuum Advisory LLC28,993$6.32M0.5%+5.8%0.003%
8/21/2026 Safeguard Investment Advisory Group LLC2,435$530K0.1%+9.2%0.000%
8/21/2026 Weitzel Financial Services Inc.24,895$5.43M1.7%+15.8%0.003%
8/21/2026 Round Rock Advisors LLC4,939$1.08M0.1%-9.7%0.001%
8/21/2026 Alamar Capital Management LLC25,000$5.45M2.8%+7.3%0.003%
8/21/2026 EMC Capital Management200$44K0.0%N/A0.000%
8/21/2026 Coppell Advisory Solutions LLC10,509$2.29M0.4%N/A0.001%
8/21/2026 Emergent Wealth Advisors LLC38,246$8.35M4.4%+6.5%0.004%
8/21/2026 Pacifica Partners Inc.844$185K0.1%-8.7%0.000%
8/21/2026 Firestone Capital Management116,359$25.36M4.8%+1.0%0.014%
8/21/2026 Beacon Financial Advisory LLC21,681$4.73M0.9%+5.8%0.003%
8/21/2026 Tsfg LLC27,299$5.95M0.8%-0.4%0.003%
8/21/2026 KFA Private Wealth Group LLC55,015$11.99M3.2%-8.5%0.006%
8/21/2026 Symphony Financial Ltd. Co.4,492$979K0.1%N/A0.001%
Bezos… DOOMED (Ad)

A single FCC filing hints Elon Musk is planning his biggest project yet - bigger than Tesla, SpaceX, and X combined - aimed at the $25 trillion AI industry. James Altucher says the plan could cut Amazon out of the AI race and disrupt Blue Origin, with a key deadline landing September 25.tc pixel

Watch James Altucher's free video breakdown before the September 25 deadline.
8/21/2026 Secure Asset Management LLC1,865$406K0.1%-3.9%0.000%
8/21/2026 R. W. Roge & Company Inc.104,065$22.68M9.5%+0.6%0.012%
8/21/2026 Chesapeake Wealth Management1,312$286K0.1%N/A0.000%
8/21/2026 Capital Wealth Management LLC163,748$35.69M7.4%+2.7%0.019%
8/21/2026 Acorn Wealth Advisors LLC15,372$3.35M0.8%+25.3%0.002%
8/21/2026 Triumph Capital Management1,759$383K0.1%+3.7%0.000%
8/21/2026 Rinkey Investments105,750$23.05M5.2%+9.0%0.012%
8/21/2026 Financial Life Advisors32,079$6.99M2.0%-4.1%0.004%
8/20/2026 First PREMIER Bank148,500$32.36M4.7%+0.9%0.017%
8/20/2026 Nwam LLC180,719$39.38M2.0%+2.0%0.021%


VTV Institutional Ownership - Frequently Asked Questions

During the previous two years, 2,934 institutional investors and hedge funds held shares of Vanguard Value ETF. The most heavily invested institutionals were Bank of America Corp DE ($25.84B), Jones Financial Companies Lllp ($10.07B), Morgan Stanley ($6.34B), Envestnet Asset Management Inc. ($4.08B), Align Financial LLC ($2.13B), Ameriprise Financial Inc. ($2.07B), and LPL Financial LLC ($2.05B).Learn more on Vanguard Value ETF's institutional investors.

Of the 2,640 institutional investors that purchased Vanguard Value ETF's stock in the last 24 months, the following investors and hedge funds have bought the highest volume of shares: International Assets Investment Management LLC ($20.31M), Bank of America Corp DE ($13.80M), Align Financial LLC ($11.15M), Raymond James Financial Inc. ($9.00M), EP Wealth Advisors LLC ($8.63M), Valpey Financial Services LLC ($8.39M), and Caisse de depot et placement du Quebec ($5.90M).

Institutional investors have bought a total of 89,777,498 shares in the last 24 months. This purchase volume represents approximately $17.24B in transactions.

Of the 1,126 institutional investors that sold Vanguard Value ETF's stock in the last 24 months, the following investors and hedge funds have sold the highest volume of shares: Bank of America Corp DE ($4.47M), Northwestern Mutual Wealth Management Co. ($3.85M), Kovitz Investment Group Partners LLC ($1.11M), Truist Financial Corp ($713.85K), Commonwealth Equity Services LLC ($688.99K), Foster Group Inc. ($572.20K), and National Bank of Canada FI ($568.74K).

Institutional investors have sold a total of 24,848,161 shares in the last 24 months. This volume of shares sold represents approximately $4.79B in transactions.



Institutional ownership data for NYSEARCA:VTV is compiled from quarterly 13F filings submitted to the U.S. Securities and Exchange Commission (SEC), with the most recent received on 9/4/2026. New 13F filings are added each quarter as they're published.
From Our Partners